Time;durP1;ratioP1;P1;durP2;ratioP2;P2;SDS_P1;SDS_P2;PMS_P1;PMS_P2;Temp;Humidity;BMP_temperature;BMP_pressure;BME280_temperature;BME280_humidity;BME280_pressure;Samples;Min_cycle;Max_cycle;Signal;HPM_P1;HPM_P2
2022/09/14 00:02:22;;;;;;;;;;;11.80;99.90;;;;;;5021858;28;19917;-28
2022/09/14 00:04:48;;;;;;;;;;;11.80;99.90;;;;;;5020177;28;19917;-28
2022/09/14 00:07:13;;;;;;;;;;;11.80;99.90;;;;;;4978317;28;1113126;-28
2022/09/14 00:09:39;;;;;;;;;;;11.90;99.90;;;;;;5036451;28;19924;-27
2022/09/14 00:12:05;;;;;;;;;;;11.90;99.90;;;;;;5032970;28;20016;-28
2022/09/14 00:14:30;;;;;;;;;;;11.90;99.90;;;;;;5006269;28;19917;-28
2022/09/14 00:16:56;;;;;;;;;;;11.90;99.90;;;;;;5016198;28;20325;-28
2022/09/14 00:19:23;;;;;;;;;;;11.90;99.90;;;;;;5022979;28;19917;-28
2022/09/14 00:21:49;;;;;;;;;;;11.90;99.90;;;;;;5029412;28;19917;-28
2022/09/14 00:24:15;;;;;;;;;;;11.90;99.90;;;;;;5027400;28;19917;-28
2022/09/14 00:26:41;;;;;;;;;;;11.90;99.90;;;;;;4997052;28;20294;-28
2022/09/14 00:29:06;;;;;;;;;;;11.90;99.90;;;;;;5014303;28;20002;-28
2022/09/14 00:31:33;;;;;;;;;;;11.80;99.90;;;;;;5015511;28;20047;-27
2022/09/14 00:33:59;;;;;;;;;;;11.90;99.90;;;;;;5017618;28;19921;-28
2022/09/14 00:36:26;;;;;;;;;;;11.90;99.90;;;;;;5014430;28;19951;-27
2022/09/14 00:38:54;;;;;;;;;;;11.90;99.90;;;;;;4988674;28;19925;-28
2022/09/14 00:41:20;;;;;;;;;;;11.90;99.90;;;;;;5004351;28;19921;-28
2022/09/14 00:44:18;;;;;;;;;;;11.90;99.90;;;;;;5017499;28;19917;-27
2022/09/14 00:46:49;;;;;;;;;;;11.90;99.90;;;;;;4963896;28;20022;-28
2022/09/14 00:49:17;;;;;;;;;;;11.90;99.90;;;;;;5019759;28;19924;-27
2022/09/14 00:51:53;;;;;;;;;;;12.00;99.90;;;;;;5008027;28;19921;-27
2022/09/14 00:54:19;;;;;;;;;;;12.00;99.90;;;;;;5017378;28;19923;-28
2022/09/14 00:56:45;;;;;;;;;;;12.00;99.90;;;;;;5009994;28;19917;-28
2022/09/14 00:59:14;;;;;;;;;;;12.00;99.90;;;;;;5012102;28;20349;-28
2022/09/14 01:01:40;;;;;;;;;;;12.00;99.90;;;;;;5010856;28;19917;-28
2022/09/14 01:04:05;;;;;;;;;;;11.90;99.90;;;;;;5017772;28;19923;-28
2022/09/14 01:06:32;;;;;;;;;;;11.90;99.90;;;;;;5018549;28;19961;-28
2022/09/14 01:09:07;;;;;;;;;;;11.90;99.90;;;;;;5027949;28;19920;-28
2022/09/14 01:11:33;;;;;;;;;;;11.90;99.90;;;;;;5022991;28;19944;-28
2022/09/14 01:14:09;;;;;;;;;;;11.80;99.90;;;;;;5015259;28;19921;-28
2022/09/14 01:16:47;;;;;;;;;;;11.80;99.90;;;;;;5015201;28;20366;-27
2022/09/14 01:19:16;;;;;;;;;;;11.80;99.90;;;;;;5020259;28;19976;-27
2022/09/14 01:21:43;;;;;;;;;;;11.80;99.90;;;;;;5008322;28;20389;-28
2022/09/14 01:24:17;;;;;;;;;;;11.80;99.90;;;;;;5020458;28;19970;-28
2022/09/14 01:27:02;;;;;;;;;;;11.80;99.90;;;;;;5025335;28;19975;-28
2022/09/14 01:29:33;;;;;;;;;;;11.80;99.90;;;;;;5030746;28;20333;-27
2022/09/14 01:32:01;;;;;;;;;;;11.70;99.90;;;;;;5014467;28;19983;-27
2022/09/14 01:34:26;;;;;;;;;;;11.70;99.90;;;;;;5014110;28;19917;-28
2022/09/14 01:36:55;;;;;;;;;;;11.70;99.90;;;;;;5039045;28;20392;-28
2022/09/14 01:39:21;;;;;;;;;;;11.70;99.90;;;;;;5013117;28;19972;-28
2022/09/14 01:41:48;;;;;;;;;;;11.60;99.90;;;;;;5014744;28;19928;-28
2022/09/14 01:44:46;;;;;;;;;;;11.60;99.90;;;;;;5024265;28;20263;-28
2022/09/14 01:47:19;;;;;;;;;;;11.60;99.90;;;;;;4985186;28;19921;-28
2022/09/14 01:49:48;;;;;;;;;;;11.50;99.90;;;;;;5022853;28;19932;-28
2022/09/14 01:52:17;;;;;;;;;;;11.50;99.90;;;;;;5007914;28;19975;-28
2022/09/14 01:54:52;;;;;;;;;;;11.50;99.90;;;;;;5012755;28;19963;-31
2022/09/14 01:57:44;;;;;;;;;;;11.40;99.90;;;;;;5009544;28;19952;-31
2022/09/14 02:00:15;;;;;;;;;;;11.40;99.90;;;;;;5013598;28;20002;-31
2022/09/14 02:02:47;;;;;;;;;;;11.40;99.90;;;;;;5011472;28;19917;-31
2022/09/14 02:05:16;;;;;;;;;;;11.40;99.90;;;;;;5012799;28;19962;-31
2022/09/14 02:07:41;;;;;;;;;;;11.40;99.90;;;;;;5030027;28;19921;-31
2022/09/14 02:10:10;;;;;;;;;;;11.40;99.90;;;;;;5010880;28;19924;-30
2022/09/14 02:12:36;;;;;;;;;;;11.40;99.90;;;;;;5014595;28;19925;-31
2022/09/14 02:15:03;;;;;;;;;;;11.40;99.90;;;;;;5013139;28;19921;-32
2022/09/14 02:17:29;;;;;;;;;;;11.40;99.90;;;;;;5012960;28;19917;-31
2022/09/14 02:19:57;;;;;;;;;;;11.30;99.90;;;;;;5024528;28;19917;-30
2022/09/14 02:22:24;;;;;;;;;;;11.40;99.90;;;;;;5017680;28;20447;-31
2022/09/14 02:24:50;;;;;;;;;;;11.30;99.90;;;;;;5019709;28;19929;-31
2022/09/14 02:27:16;;;;;;;;;;;11.30;99.90;;;;;;5016911;28;20356;-31
2022/09/14 02:29:41;;;;;;;;;;;11.30;99.90;;;;;;5005068;28;20020;-30
2022/09/14 02:32:25;;;;;;;;;;;11.40;99.90;;;;;;5009525;28;19921;-30
2022/09/14 02:34:58;;;;;;;;;;;11.40;99.90;;;;;;5027041;28;19944;-31
2022/09/14 02:37:38;;;;;;;;;;;11.40;99.90;;;;;;5017409;28;19917;-31
2022/09/14 02:40:07;;;;;;;;;;;11.40;99.90;;;;;;5029558;28;20230;-31
2022/09/14 02:43:05;;;;;;;;;;;11.50;99.90;;;;;;5025398;28;20000;-31
2022/09/14 02:45:35;;;;;;;;;;;11.50;99.90;;;;;;5002905;28;19921;-31
2022/09/14 02:48:07;;;;;;;;;;;11.50;99.90;;;;;;5019207;28;20282;-31
2022/09/14 02:50:35;;;;;;;;;;;11.50;99.90;;;;;;4999737;28;19978;-31
2022/09/14 02:53:07;;;;;;;;;;;11.50;99.90;;;;;;5026416;28;19972;-31
2022/09/14 02:55:35;;;;;;;;;;;11.50;99.90;;;;;;5040106;28;19925;-31
2022/09/14 02:58:05;;;;;;;;;;;11.50;99.90;;;;;;5020387;28;19921;-30
2022/09/14 03:00:33;;;;;;;;;;;11.50;99.90;;;;;;5017181;28;20400;-31
2022/09/14 03:02:59;;;;;;;;;;;11.50;99.90;;;;;;5027456;28;20343;-31
2022/09/14 03:05:25;;;;;;;;;;;11.50;99.90;;;;;;5012270;28;19924;-31
2022/09/14 03:07:50;;;;;;;;;;;11.50;99.90;;;;;;5017575;28;19916;-31
2022/09/14 03:10:16;;;;;;;;;;;11.60;99.90;;;;;;5024592;28;20405;-31
2022/09/14 03:12:42;;;;;;;;;;;11.60;99.90;;;;;;5013490;28;19973;-31
2022/09/14 03:15:08;;;;;;;;;;;11.60;99.90;;;;;;5001796;28;19996;-31
2022/09/14 03:17:33;;;;;;;;;;;11.70;99.90;;;;;;5008691;28;19921;-31
2022/09/14 03:19:59;;;;;;;;;;;11.70;99.90;;;;;;5008105;28;19917;-30
2022/09/14 03:22:24;;;;;;;;;;;11.70;99.90;;;;;;5020413;28;19920;-31
2022/09/14 03:24:50;;;;;;;;;;;11.70;99.90;;;;;;5016539;28;19967;-31
2022/09/14 03:27:16;;;;;;;;;;;11.70;99.90;;;;;;5018099;28;19924;-31
2022/09/14 03:29:42;;;;;;;;;;;11.60;99.90;;;;;;5013142;28;19960;-31
2022/09/14 03:32:09;;;;;;;;;;;11.60;99.90;;;;;;5029155;28;19931;-31
2022/09/14 03:34:35;;;;;;;;;;;11.60;99.90;;;;;;5016322;28;19923;-31
2022/09/14 03:37:01;;;;;;;;;;;11.60;99.90;;;;;;5000490;28;19921;-31
2022/09/14 03:39:27;;;;;;;;;;;11.60;99.90;;;;;;5012905;28;20297;-31
2022/09/14 03:41:53;;;;;;;;;;;11.60;99.90;;;;;;5010335;28;19918;-31
2022/09/14 03:44:19;;;;;;;;;;;11.60;99.90;;;;;;5013175;28;19924;-31
2022/09/14 03:46:44;;;;;;;;;;;11.60;99.90;;;;;;5012330;28;19921;-31
2022/09/14 03:49:13;;;;;;;;;;;11.60;99.90;;;;;;5015831;28;19916;-32
2022/09/14 03:51:39;;;;;;;;;;;11.60;99.90;;;;;;5024090;28;19928;-31
2022/09/14 03:54:04;;;;;;;;;;;11.60;99.90;;;;;;5034317;28;20298;-31
2022/09/14 03:56:30;;;;;;;;;;;11.60;99.90;;;;;;5015608;28;19917;-31
2022/09/14 03:58:55;;;;;;;;;;;11.60;99.90;;;;;;5017095;28;20058;-31
2022/09/14 04:01:22;;;;;;;;;;;11.60;99.90;;;;;;5013246;28;19917;-31
2022/09/14 04:03:48;;;;;;;;;;;11.60;99.90;;;;;;5018339;28;19966;-31
2022/09/14 04:06:14;;;;;;;;;;;11.70;99.90;;;;;;5023486;28;19916;-31
2022/09/14 04:08:41;;;;;;;;;;;11.70;99.90;;;;;;5011741;28;19917;-31
2022/09/14 04:11:07;;;;;;;;;;;11.70;99.90;;;;;;5018112;28;20396;-30
2022/09/14 04:13:32;;;;;;;;;;;11.80;99.90;;;;;;5011231;28;20345;-31
2022/09/14 04:15:58;;;;;;;;;;;11.80;99.90;;;;;;4997166;28;19996;-31
2022/09/14 04:18:25;;;;;;;;;;;11.90;99.90;;;;;;5018245;28;19916;-31
2022/09/14 04:20:57;;;;;;;;;;;12.00;99.90;;;;;;5016140;28;19920;-31
2022/09/14 04:23:24;;;;;;;;;;;12.00;99.90;;;;;;5017158;28;19971;-32
2022/09/14 04:25:50;;;;;;;;;;;12.00;99.90;;;;;;5020998;28;20367;-31
2022/09/14 04:28:16;;;;;;;;;;;12.10;99.90;;;;;;5016583;28;19964;-31
2022/09/14 04:30:41;;;;;;;;;;;12.00;99.90;;;;;;5017889;28;19975;-31
2022/09/14 04:33:07;;;;;;;;;;;12.10;99.90;;;;;;5012002;28;19921;-31
2022/09/14 04:35:33;;;;;;;;;;;12.10;99.90;;;;;;5014261;28;19916;-31
2022/09/14 04:37:58;;;;;;;;;;;12.20;99.90;;;;;;5012069;28;19923;-31
2022/09/14 04:40:27;;;;;;;;;;;12.20;99.90;;;;;;4997928;28;20350;-31
2022/09/14 04:42:53;;;;;;;;;;;12.20;99.90;;;;;;5014545;28;19921;-31
2022/09/14 04:45:18;;;;;;;;;;;12.30;99.90;;;;;;5021309;28;20491;-31
2022/09/14 04:47:44;;;;;;;;;;;12.30;99.90;;;;;;5010200;28;19921;-31
2022/09/14 04:50:10;;;;;;;;;;;12.30;99.90;;;;;;5022628;28;20286;-32
2022/09/14 04:52:36;;;;;;;;;;;12.30;99.90;;;;;;5034875;28;19921;-31
2022/09/14 04:55:02;;;;;;;;;;;12.30;99.90;;;;;;5017961;28;19921;-31
2022/09/14 04:57:27;;;;;;;;;;;12.40;99.90;;;;;;5007814;28;19940;-31
2022/09/14 04:59:53;;;;;;;;;;;12.40;99.90;;;;;;5020036;28;19916;-31
2022/09/14 05:02:18;;;;;;;;;;;12.40;99.90;;;;;;5010675;28;19928;-31
2022/09/14 05:04:44;;;;;;;;;;;12.40;99.90;;;;;;5018094;28;19924;-32
2022/09/14 05:07:10;;;;;;;;;;;12.40;99.90;;;;;;5024076;28;19917;-30
2022/09/14 05:09:36;;;;;;;;;;;12.40;99.90;;;;;;4991540;28;19929;-31
2022/09/14 05:12:01;;;;;;;;;;;12.40;99.90;;;;;;5010473;28;20412;-31
2022/09/14 05:14:27;;;;;;;;;;;12.40;99.90;;;;;;5029921;28;20395;-31
2022/09/14 05:16:53;;;;;;;;;;;12.40;99.90;;;;;;5014481;28;20390;-32
2022/09/14 05:19:18;;;;;;;;;;;12.40;99.90;;;;;;5013908;28;20022;-31
2022/09/14 05:21:44;;;;;;;;;;;12.40;99.90;;;;;;5007308;28;19924;-31
2022/09/14 05:24:14;;;;;;;;;;;12.40;99.90;;;;;;5006708;28;19924;-32
2022/09/14 05:26:41;;;;;;;;;;;12.40;99.90;;;;;;5009585;28;20374;-31
2022/09/14 05:29:10;;;;;;;;;;;12.40;99.90;;;;;;5024259;28;20032;-31
2022/09/14 05:31:36;;;;;;;;;;;12.40;99.90;;;;;;5005770;28;20378;-31
2022/09/14 05:34:02;;;;;;;;;;;12.40;99.90;;;;;;5013922;28;19925;-31
2022/09/14 05:36:27;;;;;;;;;;;12.40;99.90;;;;;;5025699;28;19917;-31
2022/09/14 05:38:56;;;;;;;;;;;12.40;99.90;;;;;;5015407;28;19916;-32
2022/09/14 05:41:22;;;;;;;;;;;12.40;99.90;;;;;;5006205;28;20436;-31
2022/09/14 05:43:48;;;;;;;;;;;12.40;99.90;;;;;;4993535;28;19918;-31
2022/09/14 05:46:15;;;;;;;;;;;12.50;99.90;;;;;;5042614;28;19971;-32
2022/09/14 05:48:41;;;;;;;;;;;12.50;99.90;;;;;;5014202;28;20433;-31
2022/09/14 05:51:09;;;;;;;;;;;12.50;99.90;;;;;;5024044;28;19917;-31
2022/09/14 05:53:34;;;;;;;;;;;12.50;99.90;;;;;;5004712;28;19917;-31
2022/09/14 05:56:05;;;;;;;;;;;12.60;99.90;;;;;;5007742;28;19924;-31
2022/09/14 05:58:31;;;;;;;;;;;12.60;99.90;;;;;;5020642;28;19927;-31
2022/09/14 06:00:56;;;;;;;;;;;12.60;99.90;;;;;;5016040;28;20004;-31
2022/09/14 06:03:22;;;;;;;;;;;12.60;99.90;;;;;;5017027;28;20091;-31
2022/09/14 06:05:48;;;;;;;;;;;12.70;99.90;;;;;;5016387;28;19917;-31
2022/09/14 06:08:14;;;;;;;;;;;12.80;99.90;;;;;;5009017;28;20256;-32
2022/09/14 06:10:39;;;;;;;;;;;12.80;99.90;;;;;;5013514;28;20000;-31
2022/09/14 06:13:05;;;;;;;;;;;12.80;99.90;;;;;;5014817;28;19921;-31
2022/09/14 06:15:32;;;;;;;;;;;12.90;99.90;;;;;;5021924;28;20078;-31
2022/09/14 06:17:58;;;;;;;;;;;12.90;99.90;;;;;;5013313;28;19917;-31
2022/09/14 06:20:23;;;;;;;;;;;13.00;99.90;;;;;;5011729;28;19924;-31
2022/09/14 06:22:49;;;;;;;;;;;13.00;99.90;;;;;;5010908;28;20363;-31
2022/09/14 06:25:14;;;;;;;;;;;13.00;99.90;;;;;;5008559;28;19917;-31
2022/09/14 06:27:40;;;;;;;;;;;13.00;99.90;;;;;;5009565;28;19964;-31
2022/09/14 06:30:06;;;;;;;;;;;13.10;99.90;;;;;;5012890;28;19924;-31
2022/09/14 06:32:32;;;;;;;;;;;13.10;99.90;;;;;;5010742;28;20174;-31
2022/09/14 06:34:57;;;;;;;;;;;13.20;99.90;;;;;;5013299;28;19924;-31
2022/09/14 06:37:23;;;;;;;;;;;13.20;99.90;;;;;;5010270;28;19949;-31
2022/09/14 06:39:48;;;;;;;;;;;13.20;99.90;;;;;;5037654;28;19917;-31
2022/09/14 06:42:14;;;;;;;;;;;13.30;99.90;;;;;;5012725;28;19994;-31
2022/09/14 06:44:40;;;;;;;;;;;13.40;99.90;;;;;;5021073;28;19916;-31
2022/09/14 06:47:05;;;;;;;;;;;13.40;99.90;;;;;;4995427;28;19925;-31
2022/09/14 06:49:31;;;;;;;;;;;13.50;99.90;;;;;;5016631;28;19920;-31
2022/09/14 06:51:56;;;;;;;;;;;13.60;99.90;;;;;;5013107;28;19967;-31
2022/09/14 06:54:23;;;;;;;;;;;13.60;99.90;;;;;;5006793;28;19917;-31
2022/09/14 06:56:49;;;;;;;;;;;13.70;99.90;;;;;;5017692;28;19994;-31
2022/09/14 06:59:15;;;;;;;;;;;13.80;99.90;;;;;;5016175;28;20152;-31
2022/09/14 07:01:41;;;;;;;;;;;13.90;99.90;;;;;;5017973;28;19921;-31
2022/09/14 07:04:07;;;;;;;;;;;14.00;99.90;;;;;;5013451;28;19917;-31
2022/09/14 07:06:40;;;;;;;;;;;14.00;99.90;;;;;;5015701;28;20096;-31
2022/09/14 07:09:10;;;;;;;;;;;14.10;99.90;;;;;;5009294;28;19917;-31
2022/09/14 07:11:35;;;;;;;;;;;14.20;99.90;;;;;;5022197;28;19927;-31
2022/09/14 07:14:01;;;;;;;;;;;14.30;99.90;;;;;;5014339;28;19921;-31
2022/09/14 07:16:28;;;;;;;;;;;14.30;99.90;;;;;;5007362;28;19918;-31
2022/09/14 07:18:57;;;;;;;;;;;14.40;99.90;;;;;;5024737;28;19950;-31
2022/09/14 07:21:23;;;;;;;;;;;14.50;99.90;;;;;;5035033;28;19921;-31
2022/09/14 07:23:49;;;;;;;;;;;14.60;99.90;;;;;;5018439;28;20287;-31
2022/09/14 07:26:19;;;;;;;;;;;14.70;99.90;;;;;;4992698;28;20034;-31
2022/09/14 07:28:47;;;;;;;;;;;14.80;99.90;;;;;;5021482;28;19917;-31
2022/09/14 07:31:15;;;;;;;;;;;14.90;99.90;;;;;;5010744;28;20386;-32
2022/09/14 07:33:40;;;;;;;;;;;15.10;99.90;;;;;;5015179;28;19947;-32
2022/09/14 07:36:07;;;;;;;;;;;15.30;99.90;;;;;;5001229;28;20418;-31
2022/09/14 07:38:32;;;;;;;;;;;15.40;99.90;;;;;;5017870;28;20374;-31
2022/09/14 07:40:58;;;;;;;;;;;15.60;99.90;;;;;;5017265;28;19917;-31
2022/09/14 07:43:24;;;;;;;;;;;15.60;99.90;;;;;;5016757;28;20040;-31
2022/09/14 07:45:50;;;;;;;;;;;15.70;99.90;;;;;;5016607;28;20004;-31
2022/09/14 07:48:15;;;;;;;;;;;15.80;99.90;;;;;;5016335;28;19917;-31
2022/09/14 07:50:41;;;;;;;;;;;15.80;99.90;;;;;;5036388;28;20452;-31
2022/09/14 07:53:07;;;;;;;;;;;16.00;99.90;;;;;;5017083;28;19928;-32
2022/09/14 07:55:32;;;;;;;;;;;16.20;99.90;;;;;;5011915;28;19917;-32
2022/09/14 07:57:58;;;;;;;;;;;16.30;99.90;;;;;;5011199;28;19917;-32
2022/09/14 08:00:24;;;;;;;;;;;16.40;99.90;;;;;;5012767;28;19923;-31
2022/09/14 08:02:51;;;;;;;;;;;16.60;99.90;;;;;;5017364;28;20400;-31
2022/09/14 08:05:17;;;;;;;;;;;16.70;99.90;;;;;;5012562;28;19921;-32
2022/09/14 08:07:43;;;;;;;;;;;16.80;99.90;;;;;;5013244;28;19928;-32
2022/09/14 08:10:08;;;;;;;;;;;17.00;99.90;;;;;;5008239;28;19917;-32
2022/09/14 08:12:34;;;;;;;;;;;17.20;99.90;;;;;;5024396;28;19921;-32
2022/09/14 08:15:00;;;;;;;;;;;17.30;99.90;;;;;;5016104;28;19917;-32
2022/09/14 08:17:25;;;;;;;;;;;17.50;99.90;;;;;;5009823;28;19917;-32
2022/09/14 08:19:51;;;;;;;;;;;17.60;99.90;;;;;;5010567;28;19963;-32
2022/09/14 08:22:17;;;;;;;;;;;17.80;99.90;;;;;;5016393;28;19920;-31
2022/09/14 08:24:42;;;;;;;;;;;17.80;99.90;;;;;;5018302;28;19917;-31
2022/09/14 08:27:09;;;;;;;;;;;17.90;99.90;;;;;;5011846;28;19923;-32
2022/09/14 08:29:35;;;;;;;;;;;18.10;99.90;;;;;;5015566;28;20428;-32
2022/09/14 08:32:01;;;;;;;;;;;18.10;99.90;;;;;;5031541;28;19924;-31
2022/09/14 08:34:26;;;;;;;;;;;18.10;99.90;;;;;;5012340;28;19917;-31
2022/09/14 08:36:52;;;;;;;;;;;18.10;99.90;;;;;;5017645;28;19917;-31
2022/09/14 08:39:18;;;;;;;;;;;18.20;99.90;;;;;;5004230;28;19923;-31
2022/09/14 08:41:43;;;;;;;;;;;18.20;99.90;;;;;;5013192;28;19939;-31
2022/09/14 08:44:09;;;;;;;;;;;18.30;99.90;;;;;;5032063;28;19939;-32
2022/09/14 08:46:37;;;;;;;;;;;18.30;99.90;;;;;;5031657;28;19963;-31
2022/09/14 08:49:06;;;;;;;;;;;18.30;99.90;;;;;;5018473;28;20385;-31
2022/09/14 08:51:31;;;;;;;;;;;18.20;99.90;;;;;;5015904;28;19932;-31
2022/09/14 08:53:58;;;;;;;;;;;18.30;99.90;;;;;;5015364;28;19917;-32
2022/09/14 08:56:26;;;;;;;;;;;18.30;99.90;;;;;;5026145;28;19917;-30
2022/09/14 08:58:52;;;;;;;;;;;18.40;99.90;;;;;;5000167;28;20388;-30
2022/09/14 09:01:36;;;;;;;;;;;18.40;99.90;;;;;;5024176;28;20023;-30
2022/09/14 09:04:20;;;;;;;;;;;18.50;99.90;;;;;;5012945;28;20382;-28
2022/09/14 09:06:52;;;;;;;;;;;18.60;99.90;;;;;;5028463;28;19917;-29
2022/09/14 09:09:31;;;;;;;;;;;18.90;99.90;;;;;;5023765;28;19917;-29
2022/09/14 09:11:56;;;;;;;;;;;19.30;99.90;;;;;;5028411;28;19921;-29
2022/09/14 09:14:29;;;;;;;;;;;19.50;99.90;;;;;;5012211;28;20325;-29
2022/09/14 09:16:56;;;;;;;;;;;19.60;99.90;;;;;;5018744;28;19917;-28
2022/09/14 09:19:33;;;;;;;;;;;19.60;99.90;;;;;;5015324;28;19928;-28
2022/09/14 09:22:02;;;;;;;;;;;19.60;99.90;;;;;;5014047;28;20271;-28
2022/09/14 09:24:35;;;;;;;;;;;19.80;99.90;;;;;;5008492;28;19924;-28
2022/09/14 09:27:01;;;;;;;;;;;19.90;99.90;;;;;;5014964;28;20012;-28
2022/09/14 09:29:26;;;;;;;;;;;20.10;99.90;;;;;;5015368;28;19983;-29
2022/09/14 09:31:53;;;;;;;;;;;20.40;99.90;;;;;;5029578;28;19921;-28
2022/09/14 09:34:24;;;;;;;;;;;20.80;99.90;;;;;;5016352;28;19978;-28
2022/09/14 09:36:50;;;;;;;;;;;21.00;99.90;;;;;;5031161;28;19917;-29
2022/09/14 09:39:15;;;;;;;;;;;21.00;99.90;;;;;;5014440;28;20259;-29
2022/09/14 09:41:51;;;;;;;;;;;20.90;99.90;;;;;;4997895;28;20213;-29
2022/09/14 09:44:17;;;;;;;;;;;20.80;99.90;;;;;;5028172;28;19985;-28
2022/09/14 09:46:53;;;;;;;;;;;20.50;99.90;;;;;;5000782;28;20524;-29
2022/09/14 09:49:24;;;;;;;;;;;20.60;99.90;;;;;;5007930;28;20349;-28
2022/09/14 09:51:50;;;;;;;;;;;20.60;99.90;;;;;;5013646;28;20623;-28
2022/09/14 09:54:22;;;;;;;;;;;20.80;99.90;;;;;;5016900;28;20298;-28
2022/09/14 09:56:52;;;;;;;;;;;20.70;99.90;;;;;;5002631;28;20379;-28
2022/09/14 09:59:26;;;;;;;;;;;20.70;99.90;;;;;;5000254;28;19932;-28
2022/09/14 10:01:53;;;;;;;;;;;20.60;99.90;;;;;;5011601;28;19924;-29
2022/09/14 10:04:28;;;;;;;;;;;20.60;99.90;;;;;;5007348;28;20020;-29
2022/09/14 10:06:56;;;;;;;;;;;20.50;99.90;;;;;;5014080;28;20011;-29
2022/09/14 10:09:26;;;;;;;;;;;20.50;99.90;;;;;;4999898;28;20011;-28
2022/09/14 10:12:13;;;;;;;;;;;20.40;99.90;;;;;;4998090;28;19967;-29
2022/09/14 10:14:39;;;;;;;;;;;20.40;99.90;;;;;;5032321;28;19917;-29
2022/09/14 10:17:05;;;;;;;;;;;20.40;99.90;;;;;;5018125;28;19917;-29
2022/09/14 10:19:31;;;;;;;;;;;20.70;99.90;;;;;;5027572;28;20448;-29
2022/09/14 10:22:03;;;;;;;;;;;20.70;99.90;;;;;;5011918;28;20378;-28
2022/09/14 10:24:29;;;;;;;;;;;20.80;99.90;;;;;;5003280;28;19964;-29
2022/09/14 10:26:54;;;;;;;;;;;20.80;99.90;;;;;;5012552;28;20184;-29
2022/09/14 10:29:29;;;;;;;;;;;20.90;99.90;;;;;;5012874;28;19983;-29
2022/09/14 10:32:01;;;;;;;;;;;21.00;99.90;;;;;;5028061;28;19928;-29
2022/09/14 10:34:27;;;;;;;;;;;21.00;99.90;;;;;;5003479;28;20341;-28
2022/09/14 10:37:00;;;;;;;;;;;21.00;99.90;;;;;;4997035;28;20450;-29
2022/09/14 10:39:46;;;;;;;;;;;21.00;99.90;;;;;;5006236;28;19917;-29
2022/09/14 10:42:18;;;;;;;;;;;21.20;99.90;;;;;;4967606;28;19921;-29
2022/09/14 10:44:56;;;;;;;;;;;21.40;99.90;;;;;;5027708;28;19917;-28
2022/09/14 10:47:44;;;;;;;;;;;21.50;99.90;;;;;;5012292;28;19979;-29
2022/09/14 10:50:22;;;;;;;;;;;22.10;99.90;;;;;;5023503;28;20373;-27
2022/09/14 10:52:47;;;;;;;;;;;23.20;99.90;;;;;;5020139;28;19956;-28
2022/09/14 10:55:33;;;;;;;;;;;23.70;99.90;;;;;;5015914;28;19967;-28
2022/09/14 10:58:16;;;;;;;;;;;23.60;92.60;;;;;;5029307;28;19917;-28
2022/09/14 11:00:52;;;;;;;;;;;24.10;99.90;;;;;;5035274;28;20310;-28
2022/09/14 11:03:23;;;;;;;;;;;24.40;96.90;;;;;;5027293;28;20301;-27
2022/09/14 11:06:08;;;;;;;;;;;24.70;92.00;;;;;;5016444;28;20000;-28
2022/09/14 11:08:43;;;;;;;;;;;25.20;89.90;;;;;;5033746;28;19917;-28
2022/09/14 11:11:29;;;;;;;;;;;24.90;73.80;;;;;;5017084;28;19917;-28
2022/09/14 11:14:12;;;;;;;;;;;24.60;75.50;;;;;;5006481;28;20015;-27
2022/09/14 11:16:46;;;;;;;;;;;24.20;78.50;;;;;;5009412;28;19947;-28
2022/09/14 11:19:12;;;;;;;;;;;23.80;81.90;;;;;;5028188;28;19921;-28
2022/09/14 11:21:56;;;;;;;;;;;23.10;66.70;;;;;;5014206;28;19917;-28
2022/09/14 11:24:42;;;;;;;;;;;22.80;75.40;;;;;;5018596;28;20337;-27
2022/09/14 11:27:27;;;;;;;;;;;22.20;69.70;;;;;;5004488;28;20401;-28
2022/09/14 11:29:54;;;;;;;;;;;22.10;78.60;;;;;;5009342;28;19927;-28
2022/09/14 11:32:22;;;;;;;;;;;22.30;93.50;;;;;;4999625;28;19928;-28
2022/09/14 11:35:12;;;;;;;;;;;22.30;90.90;;;;;;5010636;28;19924;-29
2022/09/14 11:37:40;;;;;;;;;;;22.40;78.60;;;;;;5019239;28;19921;-29
2022/09/14 11:40:18;;;;;;;;;;;23.10;90.80;;;;;;5004894;28;19945;-30
2022/09/14 11:42:44;;;;;;;;;;;23.60;85.50;;;;;;5016666;28;20306;-28
2022/09/14 11:45:30;;;;;;;;;;;24.00;78.60;;;;;;5035078;28;19917;-29
2022/09/14 11:47:58;;;;;;;;;;;25.00;83.60;;;;;;5028370;28;20453;-28
2022/09/14 11:50:26;;;;;;;;;;;25.90;70.00;;;;;;5021009;28;19917;-28
2022/09/14 11:53:03;;;;;;;;;;;26.90;58.60;;;;;;5016433;28;20382;-28
2022/09/14 11:55:29;;;;;;;;;;;27.60;57.90;;;;;;4992000;28;19963;-28
2022/09/14 11:57:56;;;;;;;;;;;28.10;58.90;;;;;;5029831;28;19916;-29
2022/09/14 12:00:22;;;;;;;;;;;28.90;52.20;;;;;;5027240;28;19921;-29
2022/09/14 12:03:00;;;;;;;;;;;29.20;51.60;;;;;;5008310;28;19925;-29
2022/09/14 12:05:28;;;;;;;;;;;29.30;48.70;;;;;;5020713;28;19917;-29
2022/09/14 12:08:02;;;;;;;;;;;28.70;49.40;;;;;;5013582;28;19917;-28
2022/09/14 12:10:28;;;;;;;;;;;27.80;48.10;;;;;;5003276;28;19921;-28
2022/09/14 12:12:57;;;;;;;;;;;26.90;54.30;;;;;;5020967;28;19978;-28
2022/09/14 12:15:25;;;;;;;;;;;26.00;56.80;;;;;;5035566;28;19930;-28
2022/09/14 12:18:06;;;;;;;;;;;25.30;61.00;;;;;;5024634;28;19922;-27
2022/09/14 12:20:32;;;;;;;;;;;24.80;64.30;;;;;;5035178;28;19921;-27
2022/09/14 12:23:10;;;;;;;;;;;24.30;64.90;;;;;;5037840;28;19966;-27
2022/09/14 12:25:36;;;;;;;;;;;23.90;72.20;;;;;;5021694;28;19917;-27
2022/09/14 12:28:02;;;;;;;;;;;23.50;75.60;;;;;;5017976;28;19968;-28
2022/09/14 12:30:40;;;;;;;;;;;23.20;86.40;;;;;;5009124;28;19932;-27
2022/09/14 12:33:24;;;;;;;;;;;23.00;89.10;;;;;;5030220;28;20346;-28
2022/09/14 12:35:50;;;;;;;;;;;22.70;89.40;;;;;;5017268;28;20310;-27
2022/09/14 12:38:28;;;;;;;;;;;22.80;89.70;;;;;;5017907;28;19917;-28
2022/09/14 12:41:17;;;;;;;;;;;23.50;95.60;;;;;;5022149;28;20430;-27
2022/09/14 12:43:49;;;;;;;;;;;25.10;91.10;;;;;;5006567;28;20329;-28
2022/09/14 12:46:20;;;;;;;;;;;26.50;57.70;;;;;;5023472;28;20305;-28
2022/09/14 12:48:46;;;;;;;;;;;27.30;56.10;;;;;;5032189;28;19940;-28
2022/09/14 12:51:14;;;;;;;;;;;27.90;50.60;;;;;;5022252;28;19920;-28
2022/09/14 12:53:42;;;;;;;;;;;28.50;49.10;;;;;;5014150;28;20374;-28
2022/09/14 12:56:25;;;;;;;;;;;29.10;51.90;;;;;;5021826;28;19917;-28
2022/09/14 12:59:03;;;;;;;;;;;29.60;47.00;;;;;;5016014;28;20283;-28
2022/09/14 13:01:29;;;;;;;;;;;30.50;45.00;;;;;;5023215;28;19917;-28
2022/09/14 13:03:55;;;;;;;;;;;30.70;43.70;;;;;;5035373;28;19917;-28
2022/09/14 13:06:22;;;;;;;;;;;30.40;44.50;;;;;;5019735;28;19925;-28
2022/09/14 13:08:50;;;;;;;;;;;29.40;45.00;;;;;;5022150;28;19939;-28
2022/09/14 13:11:29;;;;;;;;;;;28.20;45.90;;;;;;5020965;28;19917;-28
2022/09/14 13:13:55;;;;;;;;;;;27.00;48.40;;;;;;5009248;28;19963;-28
2022/09/14 13:16:26;;;;;;;;;;;26.00;49.70;;;;;;5030196;28;19967;-27
2022/09/14 13:18:58;;;;;;;;;;;25.30;52.70;;;;;;5018125;28;20353;-28
2022/09/14 13:21:24;;;;;;;;;;;25.20;52.00;;;;;;5036041;28;19992;-28
2022/09/14 13:23:50;;;;;;;;;;;25.40;53.30;;;;;;5018158;28;20085;-28
2022/09/14 13:26:18;;;;;;;;;;;25.30;52.50;;;;;;5018822;28;19917;-27
2022/09/14 13:28:46;;;;;;;;;;;25.50;55.30;;;;;;5017394;28;20428;-28
2022/09/14 13:31:12;;;;;;;;;;;25.60;53.10;;;;;;5024003;28;19967;-28
2022/09/14 13:33:43;;;;;;;;;;;25.60;54.30;;;;;;5030503;28;19917;-28
2022/09/14 13:36:15;;;;;;;;;;;25.40;54.00;;;;;;5016855;28;19970;-28
2022/09/14 13:38:41;;;;;;;;;;;25.40;53.20;;;;;;5031912;28;20043;-27
2022/09/14 13:41:15;;;;;;;;;;;25.30;54.90;;;;;;5012681;28;19916;-27
2022/09/14 13:43:41;;;;;;;;;;;25.30;52.00;;;;;;5025256;28;19917;-29
2022/09/14 13:46:07;;;;;;;;;;;25.10;55.50;;;;;;5020337;28;19924;-28
2022/09/14 13:48:34;;;;;;;;;;;25.00;53.70;;;;;;5021282;28;19918;-28
2022/09/14 13:51:00;;;;;;;;;;;25.10;54.60;;;;;;5018197;28;19939;-28
2022/09/14 13:53:39;;;;;;;;;;;25.30;56.70;;;;;;5027546;28;19921;-28
2022/09/14 13:56:24;;;;;;;;;;;26.10;54.70;;;;;;5018588;28;19923;-28
2022/09/14 13:59:10;;;;;;;;;;;26.10;53.50;;;;;;5011173;28;19971;-28
2022/09/14 14:01:48;;;;;;;;;;;26.60;54.40;;;;;;5030342;28;19921;-28
2022/09/14 14:04:34;;;;;;;;;;;27.20;53.40;;;;;;5019788;28;19917;-28
2022/09/14 14:07:14;;;;;;;;;;;27.00;47.50;;;;;;5003190;28;19975;-28
2022/09/14 14:09:50;;;;;;;;;;;26.60;50.30;;;;;;4999411;28;20401;-28
2022/09/14 14:12:21;;;;;;;;;;;26.10;53.90;;;;;;5011370;28;19925;-28
2022/09/14 14:15:01;;;;;;;;;;;25.70;55.00;;;;;;5032184;28;20337;-28
2022/09/14 14:17:26;;;;;;;;;;;25.30;56.50;;;;;;5021565;28;19917;-28
2022/09/14 14:19:53;;;;;;;;;;;25.00;59.20;;;;;;5016407;28;20015;-28
2022/09/14 14:22:22;;;;;;;;;;;25.10;60.40;;;;;;5019102;28;20275;-28
2022/09/14 14:24:48;;;;;;;;;;;25.00;57.30;;;;;;5026345;28;19924;-28
2022/09/14 14:27:24;;;;;;;;;;;24.80;57.80;;;;;;5012351;28;20374;-28
2022/09/14 14:29:50;;;;;;;;;;;24.50;61.70;;;;;;5009784;28;20057;-27